createdAt,value
2023-03-06T00:00:48.083Z,28.05
2023-03-06T00:04:48.234Z,29.70
2023-03-06T00:08:48.372Z,30.73
2023-03-06T00:12:48.493Z,28.99
2023-03-06T00:16:48.569Z,28.64
2023-03-06T00:20:48.670Z,29.02
2023-03-06T00:24:48.847Z,28.31
2023-03-06T00:28:48.977Z,28.12
2023-03-06T00:32:49.182Z,30.53
2023-03-06T00:36:49.196Z,29.39
2023-03-06T00:40:49.336Z,28.89
2023-03-06T00:44:49.480Z,26.38
2023-03-06T00:48:49.613Z,30.55
2023-03-06T00:52:49.737Z,28.83
2023-03-06T00:56:49.930Z,27.81
2023-03-06T01:00:50.108Z,32.67
2023-03-06T01:04:50.207Z,29.82
2023-03-06T01:08:50.320Z,30.09
2023-03-06T01:12:50.448Z,27.19
2023-03-06T01:16:50.638Z,27.47
2023-03-06T01:20:50.733Z,27.78
2023-03-06T01:24:50.866Z,27.21
2023-03-06T01:28:51.034Z,29.77
2023-03-06T01:32:51.167Z,30.15
2023-03-06T01:36:51.339Z,31.66
2023-03-06T01:40:51.461Z,32.97
2023-03-06T01:44:51.618Z,29.40
2023-03-06T01:48:51.792Z,26.99
2023-03-06T01:52:51.942Z,29.05
2023-03-06T01:56:52.054Z,32.17
2023-03-06T02:00:52.267Z,27.13
2023-03-06T02:04:52.432Z,26.87
2023-03-06T02:08:52.616Z,27.69
2023-03-06T02:12:52.783Z,25.84
2023-03-06T02:16:53.052Z,29.94
2023-03-06T02:20:53.092Z,32.80
2023-03-06T02:24:53.290Z,28.22
2023-03-06T02:28:53.488Z,30.92
2023-03-06T02:32:53.675Z,30.95
2023-03-06T02:36:53.877Z,32.81
2023-03-06T02:40:54.044Z,27.82
2023-03-06T02:44:54.234Z,29.13
2023-03-06T02:48:54.403Z,31.51
2023-03-06T02:52:54.638Z,29.07
2023-03-06T02:56:54.848Z,29.66
2023-03-06T03:00:55.062Z,27.35
2023-03-06T03:04:55.340Z,29.33
2023-03-06T03:08:55.501Z,27.68
2023-03-06T03:12:55.716Z,28.14
2023-03-06T03:16:55.912Z,30.02
2023-03-06T03:20:56.095Z,30.95
2023-03-06T03:24:56.374Z,28.35
2023-03-06T03:28:56.527Z,31.77
2023-03-06T03:32:56.805Z,30.75
2023-03-06T03:36:56.957Z,31.36
2023-03-06T03:40:57.199Z,29.78
2023-03-06T03:44:57.393Z,29.56
2023-03-06T03:48:57.592Z,32.13
2023-03-06T03:52:57.857Z,30.58
2023-03-06T03:56:58.052Z,30.59
2023-03-06T04:00:58.249Z,31.55
2023-03-06T04:04:58.556Z,31.14
2023-03-06T04:08:58.702Z,30.91
2023-03-06T04:12:58.915Z,31.15
2023-03-06T04:16:59.110Z,30.58
2023-03-06T04:20:59.402Z,28.40
2023-03-06T04:24:59.621Z,27.15
2023-03-06T04:28:59.845Z,31.48
2023-03-06T04:33:00.035Z,31.53
2023-03-06T04:37:00.262Z,29.57
2023-03-06T04:41:00.493Z,27.56
2023-03-06T04:45:00.750Z,28.93
2023-03-06T04:49:00.954Z,28.18
2023-03-06T04:53:01.189Z,29.08
2023-03-06T04:57:01.478Z,29.78
2023-03-06T05:01:01.730Z,28.98
2023-03-06T05:05:01.947Z,29.95
2023-03-06T05:09:02.220Z,30.18
2023-03-06T05:13:02.440Z,29.77
2023-03-06T05:17:02.705Z,30.07
2023-03-06T05:21:02.931Z,29.75
2023-03-06T05:25:03.199Z,27.38
2023-03-06T05:29:03.475Z,27.27
2023-03-06T05:33:03.690Z,28.41
2023-03-06T05:37:03.940Z,28.67
2023-03-06T05:41:04.174Z,27.12
2023-03-06T05:45:04.444Z,28.30
2023-03-06T05:49:04.732Z,28.58
2023-03-06T05:53:05.006Z,28.85
2023-03-06T05:57:05.247Z,30.58
2023-03-06T06:01:05.497Z,30.80
2023-03-06T06:05:05.785Z,29.51
2023-03-06T06:09:06.060Z,29.91
2023-03-06T06:13:06.250Z,31.36
2023-03-06T06:17:06.542Z,28.58
2023-03-06T06:21:06.798Z,29.81
2023-03-06T06:25:07.075Z,30.36
2023-03-06T06:29:07.288Z,29.42
2023-03-06T06:33:07.544Z,30.39
2023-03-06T06:37:07.828Z,29.86
2023-03-06T06:41:39.324Z,38.13
2023-03-06T06:45:09.076Z,46.14
2023-03-06T06:49:08.364Z,69.50
2023-03-06T06:53:08.852Z,82.56
2023-03-06T06:57:08.823Z,108.19
2023-03-06T07:01:08.698Z,121.56
2023-03-06T07:05:08.859Z,142.44
2023-03-06T07:09:08.831Z,149.85
2023-03-06T07:13:08.875Z,167.28
2023-03-06T07:17:08.798Z,182.55
2023-03-06T07:21:08.823Z,196.66
2023-03-06T07:25:08.934Z,213.97
2023-03-06T07:29:09.390Z,219.53
2023-03-06T07:33:09.053Z,229.12
2023-03-06T07:37:09.388Z,240.73
2023-03-06T07:41:08.946Z,247.37
2023-03-06T07:45:09.379Z,249.01
2023-03-06T07:49:08.796Z,248.99
2023-03-06T07:53:10.773Z,238.90
2023-03-06T07:57:08.869Z,234.07
2023-03-06T08:01:08.749Z,232.38
2023-03-06T08:05:08.970Z,227.99
2023-03-06T08:09:08.928Z,224.89
2023-03-06T08:13:09.399Z,220.31
2023-03-06T08:17:08.968Z,212.88
2023-03-06T08:21:08.986Z,207.31
2023-03-06T08:25:09.430Z,212.32
2023-03-06T08:29:08.954Z,207.24
2023-03-06T08:33:08.953Z,201.70
2023-03-06T08:37:08.999Z,193.02
2023-03-06T08:41:09.445Z,192.44
2023-03-06T08:45:09.400Z,189.57
2023-03-06T08:49:09.405Z,189.67
2023-03-06T08:53:09.132Z,197.05
2023-03-06T08:57:09.317Z,203.42
2023-03-06T09:01:09.893Z,203.74
2023-03-06T09:05:09.429Z,203.75
2023-03-06T09:09:09.399Z,206.21
2023-03-06T09:13:09.482Z,207.78
2023-03-06T09:17:09.345Z,213.71
2023-03-06T09:21:09.328Z,208.98
2023-03-06T09:25:09.331Z,213.39
2023-03-06T09:29:09.335Z,215.99
2023-03-06T09:33:09.321Z,215.65
2023-03-06T09:37:09.436Z,212.43
2023-03-06T09:41:09.255Z,213.08
2023-03-06T09:45:09.605Z,218.21
2023-03-06T09:49:09.421Z,220.88
2023-03-06T09:53:09.418Z,143.02
2023-03-06T09:57:09.427Z,136.22
2023-03-06T10:01:09.930Z,101.80
2023-03-06T10:05:09.609Z,67.90
2023-03-06T10:09:09.929Z,58.83
2023-03-06T10:13:09.631Z,48.30
2023-03-06T10:17:09.642Z,36.08
2023-03-06T10:21:19.128Z,32.32
2023-03-06T10:25:10.700Z,16.07
2023-03-06T10:29:09.952Z,28.96
2023-03-06T10:33:09.628Z,25.40
2023-03-06T10:37:09.930Z,31.75
2023-03-06T10:41:09.941Z,5.05
2023-03-06T10:45:10.490Z,17.38
2023-03-06T10:49:10.428Z,34.59
2023-03-06T10:53:10.328Z,52.63
2023-03-06T10:57:10.334Z,49.20
2023-03-06T11:01:10.969Z,62.90
2023-03-06T11:05:10.395Z,65.89
2023-03-06T11:09:10.439Z,64.51
2023-03-06T11:13:10.429Z,59.70
2023-03-06T11:17:10.457Z,59.79
2023-03-06T11:21:10.493Z,65.29
2023-03-06T11:25:10.474Z,59.66
2023-03-06T11:29:10.551Z,55.74
2023-03-06T11:33:10.488Z,59.57
2023-03-06T11:37:10.968Z,68.17
2023-03-06T11:41:10.504Z,80.66
2023-03-06T11:45:10.953Z,133.30
2023-03-06T11:49:10.600Z,153.80
2023-03-06T11:53:10.996Z,170.62
2023-03-06T11:57:10.841Z,188.38
2023-03-06T12:01:10.828Z,195.15
2023-03-06T12:05:10.880Z,200.75
2023-03-06T12:09:10.843Z,204.93
2023-03-06T12:13:11.003Z,213.60
2023-03-06T12:17:11.464Z,220.69
2023-03-06T12:21:11.145Z,226.50
2023-03-06T12:25:11.305Z,231.25
2023-03-06T12:29:11.617Z,235.97
2023-03-06T12:33:11.176Z,243.06
2023-03-06T12:37:11.489Z,248.81
2023-03-06T12:41:11.509Z,248.19
2023-03-06T12:45:11.011Z,246.24
2023-03-06T12:49:12.391Z,244.87
2023-03-06T12:53:10.903Z,245.89
2023-03-06T12:57:10.883Z,249.09
2023-03-06T13:01:10.824Z,247.10
2023-03-06T13:05:10.767Z,244.85
2023-03-06T13:09:10.716Z,246.59
2023-03-06T13:13:10.664Z,247.48
2023-03-06T13:17:10.638Z,246.26
2023-03-06T13:21:10.572Z,247.99
2023-03-06T13:25:11.004Z,246.16
2023-03-06T13:29:10.428Z,242.77
2023-03-06T13:33:10.393Z,241.21
2023-03-06T13:37:10.497Z,239.92
2023-03-06T13:41:10.227Z,237.60
2023-03-06T13:45:10.207Z,236.81
2023-03-06T13:49:10.141Z,232.88
2023-03-06T13:53:10.101Z,233.04
2023-03-06T13:57:10.151Z,224.51
2023-03-06T14:01:10.267Z,231.80
2023-03-06T14:05:10.220Z,135.70
2023-03-06T14:09:10.253Z,81.32
2023-03-06T14:13:10.404Z,74.77
2023-03-06T14:17:10.515Z,111.61
2023-03-06T14:21:10.607Z,122.85
2023-03-06T14:25:10.555Z,138.22
2023-03-06T14:29:10.506Z,146.33
2023-03-06T14:33:10.434Z,153.78
2023-03-06T14:37:10.353Z,168.99
2023-03-06T14:41:11.779Z,168.13
2023-03-06T14:45:10.234Z,165.02
2023-03-06T14:49:10.325Z,170.00
2023-03-06T14:53:10.146Z,171.55
2023-03-06T14:57:10.056Z,173.91
2023-03-06T15:01:10.000Z,171.88
2023-03-06T15:05:10.057Z,173.71
2023-03-06T15:09:09.881Z,173.51
2023-03-06T15:13:09.833Z,176.52
2023-03-06T15:17:10.045Z,176.39
2023-03-06T15:21:09.766Z,174.44
2023-03-06T15:25:10.061Z,175.26
2023-03-06T15:29:10.344Z,175.88
2023-03-06T15:33:09.518Z,175.66
2023-03-06T15:37:09.486Z,177.62
2023-03-06T15:41:09.381Z,176.92
2023-03-06T15:45:09.339Z,176.94
2023-03-06T15:49:09.255Z,176.96
2023-03-06T15:53:09.227Z,178.30
2023-03-06T15:57:09.163Z,175.53
2023-03-06T16:01:09.100Z,177.98
2023-03-06T16:05:08.984Z,176.80
2023-03-06T16:09:08.955Z,178.66
2023-03-06T16:13:08.855Z,177.71
2023-03-06T16:17:08.856Z,178.53
2023-03-06T16:21:08.858Z,177.39
2023-03-06T16:25:08.937Z,178.39
2023-03-06T16:29:09.043Z,176.90
2023-03-06T16:33:09.125Z,176.47
2023-03-06T16:37:09.207Z,174.39
2023-03-06T16:41:09.283Z,175.65
2023-03-06T16:45:09.391Z,174.90
2023-03-06T16:49:09.436Z,174.28
2023-03-06T16:53:09.537Z,173.44
2023-03-06T16:57:09.555Z,172.26
2023-03-06T17:01:10.089Z,174.56
2023-03-06T17:05:09.649Z,173.20
2023-03-06T17:09:09.675Z,172.55
2023-03-06T17:13:09.738Z,170.85
2023-03-06T17:17:09.864Z,170.93
2023-03-06T17:21:09.926Z,170.02
2023-03-06T17:25:10.038Z,170.53
2023-03-06T17:29:10.085Z,170.14
2023-03-06T17:33:10.160Z,171.92
2023-03-06T17:37:10.298Z,170.77
2023-03-06T17:41:10.322Z,168.19
2023-03-06T17:45:10.425Z,169.13
2023-03-06T17:49:10.537Z,171.15
2023-03-06T17:53:10.607Z,168.62
2023-03-06T17:57:10.780Z,168.17
2023-03-06T18:01:10.848Z,168.26
2023-03-06T18:05:10.991Z,167.98
2023-03-06T18:09:11.208Z,167.38
2023-03-06T18:13:11.183Z,169.25
2023-03-06T18:17:11.316Z,166.85
2023-03-06T18:21:11.415Z,167.58
2023-03-06T18:25:11.524Z,165.30
2023-03-06T18:29:11.659Z,168.21
2023-03-06T18:33:11.803Z,167.12
2023-03-06T18:37:11.883Z,165.71
2023-03-06T18:41:12.041Z,163.88
2023-03-06T18:45:12.131Z,164.49
2023-03-06T18:49:12.241Z,162.49
2023-03-06T18:53:12.405Z,164.94
2023-03-06T18:57:12.532Z,164.33
2023-03-06T19:01:12.755Z,164.26
2023-03-06T19:05:12.855Z,163.64
2023-03-06T19:09:12.987Z,162.00
2023-03-06T19:13:13.136Z,161.92
2023-03-06T19:17:13.287Z,163.00
2023-03-06T19:21:13.416Z,162.72
2023-03-06T19:25:13.585Z,161.59
2023-03-06T19:29:13.742Z,160.85
2023-03-06T19:33:13.923Z,162.36
2023-03-06T19:37:14.093Z,160.58
2023-03-06T19:41:14.281Z,160.88
2023-03-06T19:45:14.502Z,160.04
2023-03-06T19:49:14.642Z,159.85
2023-03-06T19:53:14.817Z,158.83
2023-03-06T19:57:15.031Z,157.70
2023-03-06T20:01:15.216Z,158.75
2023-03-06T20:05:15.389Z,159.86
2023-03-06T20:09:15.543Z,156.97
2023-03-06T20:13:15.700Z,157.21
2023-03-06T20:17:15.904Z,158.20
2023-03-06T20:21:16.092Z,155.67
2023-03-06T20:25:16.280Z,155.14
2023-03-06T20:29:16.430Z,154.94
2023-03-06T20:33:16.636Z,154.92
2023-03-06T20:37:16.835Z,154.38
2023-03-06T20:41:17.028Z,154.25
2023-03-06T20:45:17.219Z,154.89
2023-03-06T20:49:17.412Z,154.18
2023-03-06T20:53:17.608Z,153.98
2023-03-06T20:57:17.813Z,154.26
2023-03-06T21:01:18.029Z,152.19
2023-03-06T21:05:18.193Z,152.90
2023-03-06T21:09:18.403Z,151.96
2023-03-06T21:13:18.632Z,151.52
2023-03-06T21:17:18.782Z,150.75
2023-03-06T21:21:18.998Z,151.22
2023-03-06T21:25:19.206Z,151.31
2023-03-06T21:29:19.421Z,150.88
2023-03-06T21:33:19.625Z,151.13
2023-03-06T21:37:19.813Z,150.61
2023-03-06T21:41:20.059Z,148.57
2023-03-06T21:45:20.321Z,149.36
2023-03-06T21:49:20.584Z,148.98
2023-03-06T21:53:20.858Z,148.12
2023-03-06T21:57:20.880Z,147.99
2023-03-06T22:01:20.965Z,146.47
2023-03-06T22:05:20.939Z,147.64
2023-03-06T22:09:20.971Z,146.82
2023-03-06T22:13:20.997Z,146.83
2023-03-06T22:17:21.023Z,145.40
2023-03-06T22:21:21.047Z,144.97
2023-03-06T22:25:21.031Z,144.35
2023-03-06T22:29:21.070Z,143.87
2023-03-06T22:33:21.089Z,143.38
2023-03-06T22:37:21.119Z,144.07
2023-03-06T22:41:21.182Z,144.89
2023-03-06T22:45:21.448Z,143.68
2023-03-06T22:49:21.709Z,142.33
2023-03-06T22:53:21.919Z,143.27
2023-03-06T22:57:22.174Z,143.26
2023-03-06T23:01:22.509Z,141.22
2023-03-06T23:05:22.682Z,141.75
2023-03-06T23:09:22.904Z,140.23
2023-03-06T23:13:23.130Z,140.94
2023-03-06T23:17:23.397Z,140.22
2023-03-06T23:21:23.648Z,140.02
2023-03-06T23:25:23.914Z,138.83
2023-03-06T23:29:24.143Z,139.50
2023-03-06T23:33:24.409Z,138.47
2023-03-06T23:37:24.673Z,138.43
2023-03-06T23:41:24.919Z,136.99
2023-03-06T23:45:25.136Z,136.43
2023-03-06T23:49:25.408Z,136.61
2023-03-06T23:53:25.655Z,136.48
2023-03-06T23:57:25.929Z,136.50
